Time;durP1;ratioP1;P1;durP2;ratioP2;P2;SDS_P1;SDS_P2;PMS_P1;PMS_P2;Temp;Humidity;BMP_temperature;BMP_pressure;BME280_temperature;BME280_humidity;BME280_pressure;Samples;Min_cycle;Max_cycle;Signal;HPM_P1;HPM_P2
2023/06/04 00:00:51;;;;;;;12.40;1.80;;;15.30;1.00;;;;;;5032633;28;20191;-81
2023/06/04 00:03:17;;;;;;;4.13;1.80;;;15.30;1.00;;;;;;5038005;28;20290;-79
2023/06/04 00:05:42;;;;;;;2.43;1.70;;;15.30;1.00;;;;;;5039040;28;20568;-80
2023/06/04 00:08:08;;;;;;;3.50;2.20;;;15.20;1.00;;;;;;5035736;28;20219;-81
2023/06/04 00:10:33;;;;;;;2.80;1.63;;;15.20;1.00;;;;;;5023783;28;20193;-81
2023/06/04 00:12:59;;;;;;;2.10;1.70;;;15.10;1.00;;;;;;5036283;28;20215;-80
2023/06/04 00:15:25;;;;;;;5.00;2.60;;;15.10;1.00;;;;;;5040417;28;20188;-81
2023/06/04 00:17:51;;;;;;;3.33;2.20;;;15.10;1.00;;;;;;5040743;28;20469;-81
2023/06/04 00:20:17;;;;;;;2.87;1.83;;;15.00;1.00;;;;;;5023564;28;20438;-81
2023/06/04 00:22:42;;;;;;;2.27;1.57;;;14.90;1.00;;;;;;5041007;28;20264;-81
2023/06/04 00:25:09;;;;;;;2.70;1.80;;;14.80;1.00;;;;;;5035705;28;20190;-80
2023/06/04 00:27:35;;;;;;;3.63;2.20;;;14.70;1.00;;;;;;5039085;28;20203;-81
2023/06/04 00:30:00;;;;;;;3.90;1.63;;;14.70;1.00;;;;;;5025036;28;20487;-82
2023/06/04 00:32:26;;;;;;;4.27;2.20;;;14.70;1.00;;;;;;5042259;28;20213;-80
2023/06/04 00:34:53;;;;;;;2.60;1.70;;;14.70;1.00;;;;;;5041036;28;20202;-80
2023/06/04 00:37:19;;;;;;;2.60;1.87;;;14.70;1.00;;;;;;5041468;28;20877;-81
2023/06/04 00:39:45;;;;;;;3.47;2.03;;;14.70;1.00;;;;;;5041300;28;20430;-78
2023/06/04 00:42:10;;;;;;;2.33;2.03;;;14.60;1.00;;;;;;5036380;28;21118;-79
2023/06/04 00:44:36;;;;;;;4.00;2.10;;;14.60;1.00;;;;;;5020529;28;20192;-81
2023/06/04 00:47:02;;;;;;;3.33;2.00;;;14.60;1.00;;;;;;5033220;28;20726;-82
2023/06/04 00:49:28;;;;;;;2.97;1.70;;;14.60;1.00;;;;;;5041083;28;20181;-82
2023/06/04 00:51:54;;;;;;;4.00;1.77;;;14.60;1.00;;;;;;5023895;28;20435;-82
2023/06/04 00:54:20;;;;;;;2.90;1.83;;;14.60;1.00;;;;;;5044193;28;20198;-81
2023/06/04 00:56:47;;;;;;;3.73;1.80;;;14.60;1.00;;;;;;5042401;28;20461;-79
2023/06/04 00:59:12;;;;;;;2.80;1.80;;;14.50;1.00;;;;;;5026782;28;20433;-82
2023/06/04 01:02:01;;;;;;;2.97;1.63;;;14.50;1.00;;;;;;5019904;28;20505;-81
2023/06/04 01:04:37;;;;;;;6.77;2.10;;;14.50;1.00;;;;;;5039471;28;20180;-81
2023/06/04 01:07:05;;;;;;;5.53;2.03;;;14.50;1.00;;;;;;5033770;28;20461;-81
2023/06/04 01:09:31;;;;;;;5.23;1.87;;;14.50;1.00;;;;;;5024892;28;20454;-81
2023/06/04 01:12:01;;;;;;;3.10;1.90;;;14.50;1.30;;;;;;5042451;28;20439;-81
2023/06/04 01:14:29;;;;;;;2.70;1.97;;;14.50;1.00;;;;;;5043153;28;20437;-81
2023/06/04 01:17:23;;;;;;;4.87;1.97;;;14.40;1.00;;;;;;5043109;28;20483;-81
2023/06/04 01:19:51;;;;;;;2.90;1.70;;;14.40;1.00;;;;;;5038591;28;20445;-79
2023/06/04 01:22:31;;;;;;;4.73;2.20;;;14.30;1.00;;;;;;5044977;28;20433;-82
2023/06/04 01:25:02;;;;;;;2.97;2.23;;;14.30;1.00;;;;;;5026350;28;20460;-79
2023/06/04 01:27:29;;;;;;;3.40;2.03;;;14.30;1.00;;;;;;5026619;28;20463;-81
2023/06/04 01:29:56;;;;;;;3.03;2.20;;;14.20;1.00;;;;;;5035750;28;20455;-80
2023/06/04 01:32:23;;;;;;;3.87;2.20;;;14.20;1.00;;;;;;5044115;28;20468;-81
2023/06/04 01:34:49;;;;;;;4.27;1.90;;;14.20;1.00;;;;;;5040072;28;20819;-80
2023/06/04 01:37:16;;;;;;;2.40;1.80;;;14.20;1.00;;;;;;5041080;28;20449;-82
2023/06/04 01:39:42;;;;;;;3.27;2.00;;;14.20;1.00;;;;;;5040658;28;20194;-82
2023/06/04 01:42:08;;;;;;;10.13;2.47;;;14.10;1.00;;;;;;5038350;28;20441;-81
2023/06/04 01:44:34;;;;;;;2.47;1.93;;;14.10;1.00;;;;;;5043906;28;20184;-80
2023/06/04 01:46:59;;;;;;;5.07;2.20;;;14.10;1.00;;;;;;5039157;28;20475;-81
2023/06/04 01:49:25;;;;;;;3.20;2.43;;;14.00;1.00;;;;;;5050145;28;20433;-81
2023/06/04 01:51:51;;;;;;;5.13;3.23;;;14.00;1.00;;;;;;5029000;28;20178;-82
2023/06/04 01:54:17;;;;;;;2.60;2.00;;;14.00;1.00;;;;;;5024120;28;20207;-80
2023/06/04 01:56:43;;;;;;;4.53;2.30;;;14.00;1.00;;;;;;5038767;28;20198;-82
2023/06/04 01:59:11;;;;;;;3.90;1.80;;;14.00;1.00;;;;;;5028195;28;20182;-82
2023/06/04 02:01:37;;;;;;;4.80;2.53;;;13.90;1.00;;;;;;5046202;28;20487;-80
2023/06/04 02:04:03;;;;;;;4.80;2.37;;;13.90;1.00;;;;;;5045069;28;20434;-80
2023/06/04 02:06:29;;;;;;;4.30;2.47;;;13.90;1.00;;;;;;5028682;28;20462;-82
2023/06/04 02:08:55;;;;;;;4.17;2.27;;;13.90;1.00;;;;;;5044408;28;20189;-80
2023/06/04 02:11:21;;;;;;;4.47;2.30;;;13.90;1.00;;;;;;5022299;28;20469;-80
2023/06/04 02:13:46;;;;;;;4.30;2.70;;;13.80;1.00;;;;;;5039264;28;20296;-81
2023/06/04 02:16:12;;;;;;;4.30;2.70;;;13.80;1.00;;;;;;5037891;28;20560;-80
2023/06/04 02:18:37;;;;;;;3.80;2.20;;;13.80;1.00;;;;;;5043990;28;20228;-81
2023/06/04 02:21:03;;;;;;;4.20;2.80;;;13.70;1.00;;;;;;5043520;28;20198;-81
2023/06/04 02:23:28;;;;;;;6.10;2.80;;;13.70;1.00;;;;;;5045668;28;20190;-82
2023/06/04 02:25:54;;;;;;;7.17;2.60;;;13.70;1.00;;;;;;5040365;28;20438;-82
2023/06/04 02:28:20;;;;;;;3.93;2.73;;;13.70;1.00;;;;;;5036478;28;20187;-80
2023/06/04 02:30:46;;;;;;;3.90;2.53;;;13.60;1.00;;;;;;5042032;28;20191;-80
2023/06/04 02:33:12;;;;;;;4.67;3.10;;;13.60;1.00;;;;;;5042648;28;20465;-80
2023/06/04 02:35:38;;;;;;;5.27;2.80;;;13.60;1.00;;;;;;5045360;28;20432;-79
2023/06/04 02:38:04;;;;;;;4.30;2.67;;;13.50;1.00;;;;;;5045515;28;20527;-82
2023/06/04 02:40:30;;;;;;;3.37;2.47;;;13.50;1.00;;;;;;5046281;28;20241;-82
2023/06/04 02:42:58;;;;;;;5.30;2.60;;;13.50;1.00;;;;;;5043751;28;20532;-82
2023/06/04 02:45:24;;;;;;;4.37;3.00;;;13.40;1.00;;;;;;5026931;28;20695;-82
2023/06/04 02:47:50;;;;;;;4.07;2.97;;;13.40;1.00;;;;;;5021327;28;20859;-82
2023/06/04 02:50:16;;;;;;;3.50;2.17;;;13.40;1.00;;;;;;5043185;28;20459;-82
2023/06/04 02:52:42;;;;;;;5.37;2.80;;;13.30;1.00;;;;;;5034262;28;20301;-82
2023/06/04 02:55:12;;;;;;;3.70;2.90;;;13.30;1.00;;;;;;5031097;28;20439;-80
2023/06/04 02:57:41;;;;;;;6.87;2.73;;;13.30;1.00;;;;;;5025550;28;20449;-80
2023/06/04 03:00:13;;;;;;;4.63;2.33;;;13.20;1.00;;;;;;5026629;28;20441;-81
2023/06/04 03:02:43;;;;;;;5.37;2.60;;;13.10;1.00;;;;;;5043833;28;20445;-81
2023/06/04 03:05:11;;;;;;;5.73;3.20;;;13.10;1.30;;;;;;5044425;28;20451;-79
2023/06/04 03:07:37;;;;;;;6.17;2.73;;;13.10;1.70;;;;;;5042374;28;20547;-77
2023/06/04 03:10:04;;;;;;;5.50;2.70;;;13.10;2.10;;;;;;5042070;28;20448;-82
2023/06/04 03:12:29;;;;;;;4.67;3.07;;;13.00;2.50;;;;;;5044002;28;20472;-81
2023/06/04 03:14:55;;;;;;;3.57;2.80;;;13.00;2.40;;;;;;5035286;28;20437;-79
2023/06/04 03:17:21;;;;;;;5.77;2.90;;;13.00;3.10;;;;;;5044545;28;20209;-81
2023/06/04 03:19:47;;;;;;;3.47;2.97;;;13.00;3.30;;;;;;5049182;28;20178;-82
2023/06/04 03:22:13;;;;;;;5.70;3.13;;;13.00;3.60;;;;;;5043664;28;20494;-79
2023/06/04 03:24:39;;;;;;;2.97;2.00;;;13.00;4.10;;;;;;5042592;28;20455;-81
2023/06/04 03:27:07;;;;;;;5.53;2.70;;;13.00;4.40;;;;;;5035380;28;20582;-81
2023/06/04 03:29:33;;;;;;;5.93;3.00;;;13.00;5.40;;;;;;5044964;28;20455;-80
2023/06/04 03:31:59;;;;;;;5.00;2.17;;;12.90;5.30;;;;;;5040559;28;20445;-80
2023/06/04 03:34:25;;;;;;;5.30;2.50;;;13.00;6.80;;;;;;5031046;28;20527;-79
2023/06/04 03:36:52;;;;;;;5.57;2.43;;;13.00;6.60;;;;;;5042088;28;20441;-82
2023/06/04 03:39:17;;;;;;;4.20;2.57;;;13.00;7.40;;;;;;5045179;28;20454;-81
2023/06/04 03:41:43;;;;;;;4.80;2.83;;;13.00;7.80;;;;;;5045915;28;20482;-79
2023/06/04 03:44:09;;;;;;;7.80;2.73;;;13.00;9.20;;;;;;5014610;28;20602;-79
2023/06/04 03:46:35;;;;;;;5.20;2.30;;;13.00;10.70;;;;;;5026156;28;20210;-80
2023/06/04 03:49:01;;;;;;;3.77;2.53;;;13.00;11.30;;;;;;5040715;28;20185;-78
2023/06/04 03:51:26;;;;;;;2.77;2.30;;;13.00;11.60;;;;;;5044791;28;20492;-81
2023/06/04 03:53:52;;;;;;;2.43;2.07;;;13.00;11.90;;;;;;5044747;28;20475;-81
2023/06/04 03:56:18;;;;;;;4.20;2.97;;;13.00;12.90;;;;;;5044523;28;20205;-81
2023/06/04 03:58:43;;;;;;;5.23;2.70;;;13.00;13.90;;;;;;5022351;28;20185;-81
2023/06/04 04:01:10;;;;;;;4.50;2.37;;;13.00;14.00;;;;;;5044095;28;20915;-80
2023/06/04 04:03:36;;;;;;;3.27;2.30;;;13.00;15.20;;;;;;5042179;28;20189;-80
2023/06/04 04:06:02;;;;;;;4.10;2.50;;;13.00;15.70;;;;;;5042698;28;21005;-81
2023/06/04 04:08:31;;;;;;;6.50;3.40;;;13.00;16.60;;;;;;5024474;28;20436;-82
2023/06/04 04:11:00;;;;;;;5.80;2.80;;;13.10;17.30;;;;;;5041272;28;20436;-82
2023/06/04 04:13:25;;;;;;;5.93;2.90;;;13.10;18.00;;;;;;5023970;28;20457;-81
2023/06/04 04:15:52;;;;;;;4.70;2.70;;;13.10;18.60;;;;;;5029901;28;20432;-82
2023/06/04 04:18:19;;;;;;;5.30;2.90;;;13.20;19.60;;;;;;5029477;28;20199;-82
2023/06/04 04:20:46;;;;;;;3.93;2.77;;;13.20;21.20;;;;;;5025256;28;20414;-83
2023/06/04 04:23:12;;;;;;;5.53;2.70;;;13.20;21.50;;;;;;5025519;28;20536;-81
2023/06/04 04:25:38;;;;;;;5.00;2.90;;;13.20;23.00;;;;;;5043224;28;20520;-82
2023/06/04 04:28:06;;;;;;;4.20;3.10;;;13.30;23.60;;;;;;5022413;28;20863;-81
2023/06/04 04:30:34;;;;;;;9.50;2.77;;;13.30;25.00;;;;;;5029663;28;20554;-82
2023/06/04 04:33:00;;;;;;;3.63;2.83;;;13.40;25.60;;;;;;5024516;28;20465;-81
2023/06/04 04:35:26;;;;;;;13.10;2.80;;;13.40;26.80;;;;;;5021452;28;20947;-83
2023/06/04 04:37:51;;;;;;;6.03;2.50;;;13.50;28.60;;;;;;5040821;28;20433;-81
2023/06/04 04:40:17;;;;;;;6.20;2.67;;;13.50;41.80;;;;;;5044235;28;20176;-82
2023/06/04 04:42:45;;;;;;;5.20;2.47;;;13.60;30.40;;;;;;5045136;28;20186;-81
2023/06/04 04:45:11;;;;;;;7.17;3.07;;;13.60;32.20;;;;;;5040555;28;20300;-80
2023/06/04 04:47:37;;;;;;;3.23;2.73;;;13.70;33.50;;;;;;5048769;28;20946;-81
2023/06/04 04:50:03;;;;;;;4.80;2.60;;;13.70;35.20;;;;;;5048994;28;20318;-81
2023/06/04 04:52:28;;;;;;;6.97;3.40;;;13.80;36.20;;;;;;5023566;28;20567;-82
2023/06/04 04:54:55;;;;;;;3.33;2.60;;;13.90;38.00;;;;;;5045670;28;20180;-82
2023/06/04 04:57:22;;;;;;;3.50;2.67;;;13.90;39.20;;;;;;5047015;28;20194;-82
2023/06/04 04:59:48;;;;;;;4.00;2.80;;;14.00;41.10;;;;;;5025886;28;20535;-81
2023/06/04 05:02:15;;;;;;;5.97;2.80;;;14.10;42.80;;;;;;5026834;28;20431;-83
2023/06/04 05:04:40;;;;;;;7.10;2.60;;;14.20;44.60;;;;;;5043851;28;21032;-80
2023/06/04 05:07:06;;;;;;;4.97;3.30;;;14.30;58.40;;;;;;5048469;28;20424;-79
2023/06/04 05:09:31;;;;;;;3.53;2.50;;;14.40;46.80;;;;;;5045277;28;20188;-79
2023/06/04 05:11:57;;;;;;;4.63;3.00;;;14.50;47.70;;;;;;5039420;28;20183;-80
2023/06/04 05:14:23;;;;;;;4.90;2.63;;;14.60;48.70;;;;;;5048010;28;20206;-81
2023/06/04 05:16:49;;;;;;;5.30;3.33;;;14.70;49.70;;;;;;5029016;28;20449;-81
2023/06/04 05:19:19;;;;;;;5.30;2.70;;;14.80;50.60;;;;;;5048029;28;20226;-82
2023/06/04 05:21:44;;;;;;;5.10;2.57;;;14.90;51.50;;;;;;5030544;28;20677;-83
2023/06/04 05:24:10;;;;;;;2.90;2.53;;;15.00;51.50;;;;;;5038407;28;20473;-82
2023/06/04 05:26:37;;;;;;;4.60;2.57;;;15.20;52.30;;;;;;5036860;28;20553;-82
2023/06/04 05:29:05;;;;;;;5.20;2.87;;;15.30;53.00;;;;;;5031753;28;20443;-82
2023/06/04 05:31:34;;;;;;;4.60;2.53;;;15.40;52.80;;;;;;5025662;28;20577;-80
2023/06/04 05:34:04;;;;;;;3.60;2.63;;;15.50;51.10;;;;;;5027116;28;20487;-83
2023/06/04 05:36:30;;;;;;;4.03;3.50;;;15.60;50.60;;;;;;5026283;28;20441;-82
2023/06/04 05:38:57;;;;;;;4.37;2.63;;;15.70;50.30;;;;;;5028531;28;20451;-82
2023/06/04 05:41:28;;;;;;;4.30;2.63;;;15.80;50.10;;;;;;5032103;28;20459;-81
2023/06/04 05:43:54;;;;;;;3.80;2.73;;;15.90;49.30;;;;;;5024054;28;20472;-82
2023/06/04 05:46:21;;;;;;;4.87;2.40;;;16.00;48.90;;;;;;5029720;28;20472;-82
2023/06/04 05:48:47;;;;;;;6.67;3.50;;;16.10;48.60;;;;;;5030284;28;20447;-82
2023/06/04 05:51:15;;;;;;;4.10;2.50;;;16.20;47.90;;;;;;5034547;28;20416;-83
2023/06/04 05:53:41;;;;;;;8.53;3.20;;;16.40;48.00;;;;;;5025604;28;20230;-81
2023/06/04 05:56:06;;;;;;;6.77;3.40;;;16.50;47.10;;;;;;5028031;28;20428;-81
2023/06/04 05:58:34;;;;;;;5.67;3.10;;;16.60;47.50;;;;;;5026927;28;20186;-82
2023/06/04 06:01:00;;;;;;;4.80;2.83;;;16.80;46.20;;;;;;5034548;28;20438;-82
2023/06/04 06:03:27;;;;;;;4.10;2.40;;;17.20;46.70;;;;;;5032539;28;20494;-82
2023/06/04 06:05:54;;;;;;;5.33;2.67;;;17.80;48.30;;;;;;5025530;28;20459;-82
2023/06/04 06:08:25;;;;;;;5.03;2.63;;;19.30;51.70;;;;;;5026397;28;20446;-83
2023/06/04 06:10:51;;;;;;;4.67;2.27;;;22.80;58.50;;;;;;5025553;28;20425;-82
2023/06/04 06:13:16;;;;;;;3.60;2.23;;;26.60;66.00;;;;;;5027098;28;20496;-83
2023/06/04 06:15:42;;;;;;;2.87;1.80;;;30.00;74.10;;;;;;5025643;28;20186;-82
2023/06/04 06:18:08;;;;;;;3.87;2.03;;;32.70;77.50;;;;;;5018452;28;20207;-83
2023/06/04 06:20:34;;;;;;;4.67;2.20;;;35.20;75.90;;;;;;5027269;28;20178;-84
2023/06/04 06:23:07;;;;;;;3.57;2.37;;;37.20;67.00;;;;;;5027505;28;20772;-84
2023/06/04 06:25:32;;;;;;;3.10;2.43;;;39.00;57.10;;;;;;5029207;28;20178;-85
2023/06/04 06:27:58;;;;;;;3.43;2.10;;;40.40;51.50;;;;;;5028335;28;20453;-84
2023/06/04 06:30:24;;;;;;;2.73;2.23;;;41.60;43.40;;;;;;5031196;28;20193;-84
2023/06/04 06:32:50;;;;;;;4.70;2.33;;;42.40;35.30;;;;;;5032713;28;20473;-82
2023/06/04 06:35:17;;;;;;;2.33;1.80;;;43.10;28.80;;;;;;5039664;28;20432;-85
2023/06/04 06:37:43;;;;;;;2.17;1.73;;;44.00;24.30;;;;;;5029468;28;20194;-84
2023/06/04 06:40:09;;;;;;;2.30;2.10;;;44.50;28.80;;;;;;5026535;28;20430;-83
2023/06/04 06:42:35;;;;;;;3.70;2.00;;;45.10;15.20;;;;;;5026100;28;20473;-83
2023/06/04 06:45:01;;;;;;;4.67;2.00;;;45.90;12.10;;;;;;5043759;28;20536;-82
2023/06/04 06:47:26;;;;;;;3.27;1.80;;;46.20;7.80;;;;;;5031218;28;20221;-82
2023/06/04 06:49:51;;;;;;;2.70;1.90;;;47.00;4.90;;;;;;5047301;28;20231;-80
2023/06/04 06:52:19;;;;;;;2.80;1.90;;;47.90;2.60;;;;;;5043107;28;20177;-80
2023/06/04 06:54:45;;;;;;;1.90;1.70;;;48.90;1.00;;;;;;5027748;28;20192;-83
2023/06/04 06:57:11;;;;;;;3.03;1.97;;;50.10;1.00;;;;;;5026652;28;20488;-82
2023/06/04 06:59:37;;;;;;;3.53;1.80;;;51.30;1.00;;;;;;5026783;28;20425;-81
2023/06/04 07:02:03;;;;;;;4.17;2.10;;;52.40;1.00;;;;;;5040021;28;20190;-82
2023/06/04 07:04:28;;;;;;;5.82;1.88;;;52.70;1.00;;;;;;5027541;28;20652;-82
2023/06/04 07:06:54;;;;;;;3.45;1.67;;;53.30;1.00;;;;;;5040241;22;20308;-82
2023/06/04 07:09:23;;;;;;;2.15;1.50;;;53.70;1.00;;;;;;5047772;28;20170;-82
2023/06/04 07:11:48;;;;;;;2.30;1.70;;;54.60;1.00;;;;;;5047532;28;20541;-82
2023/06/04 07:14:14;;;;;;;1.95;1.40;;;55.60;1.00;;;;;;5047036;28;20228;-82
2023/06/04 07:16:40;;;;;;;2.35;1.63;;;56.00;1.00;;;;;;5025011;28;20202;-82
2023/06/04 07:19:05;;;;;;;2.47;1.70;;;56.20;1.00;;;;;;5024049;28;20185;-83
2023/06/04 07:21:31;;;;;;;3.15;1.55;;;55.70;1.00;;;;;;5026908;28;20217;-82
2023/06/04 07:23:56;;;;;;;1.50;1.40;;;55.30;1.00;;;;;;5025774;28;20277;-82
2023/06/04 07:26:22;;;;;;;2.65;1.50;;;56.00;1.00;;;;;;5032873;28;20199;-83
2023/06/04 07:28:47;;;;;;;4.53;1.63;;;56.60;1.00;;;;;;5024566;28;20193;-84
2023/06/04 07:31:17;;;;;;;2.50;1.50;;;57.00;1.00;;;;;;5026569;28;20201;-81
2023/06/04 07:33:43;;;;;;;1.95;1.40;;;57.30;1.00;;;;;;5025986;28;20182;-84
2023/06/04 07:36:18;;;;;;;1.63;1.40;;;57.30;1.00;;;;;;5004692;28;20190;-80
2023/06/04 07:38:43;;;;;;;5.70;1.77;;;57.60;1.00;;;;;;5007105;28;20246;-83
2023/06/04 07:41:10;;;;;;;3.38;1.50;;;58.10;1.00;;;;;;5009379;28;20231;-83
2023/06/04 07:43:36;;;;;;;3.05;1.80;;;58.10;1.00;;;;;;5008363;28;20252;-83
2023/06/04 07:46:05;;;;;;;6.82;1.92;;;58.00;1.00;;;;;;5004318;28;20190;-83
2023/06/04 07:48:30;;;;;;;1.88;1.40;;;57.40;1.00;;;;;;5006347;28;20182;-82
2023/06/04 07:51:04;;;;;;;4.47;1.60;;;56.80;1.00;;;;;;4991181;28;20259;-82
2023/06/04 07:53:29;;;;;;;2.25;1.80;;;56.50;1.00;;;;;;5017915;28;20190;-83
2023/06/04 07:55:56;;;;;;;3.80;1.80;;;55.90;1.00;;;;;;5003805;28;20281;-84
2023/06/04 07:58:21;;;;;;;2.85;1.63;;;55.60;1.00;;;;;;5021426;28;20197;-82
2023/06/04 08:00:47;;;;;;;1.50;1.40;;;55.70;1.00;;;;;;5008393;28;20178;-82
2023/06/04 08:03:20;;;;;;;5.72;1.65;;;55.40;1.00;;;;;;5008364;28;20277;-82
2023/06/04 08:05:45;;;;;;;2.55;1.40;;;55.20;1.00;;;;;;5007284;28;20209;-83
2023/06/04 08:08:11;;;;;;;3.53;1.50;;;55.10;1.00;;;;;;5005507;28;20214;-82
2023/06/04 08:10:38;;;;;;;2.35;1.70;;;55.20;1.00;;;;;;5004560;28;20296;-82
2023/06/04 08:13:04;;;;;;;2.05;1.45;;;55.40;1.00;;;;;;5025315;28;20189;-82
2023/06/04 08:15:29;;;;;;;1.85;1.25;;;55.60;1.00;;;;;;5017662;28;20182;-85
2023/06/04 08:18:03;;;;;;;3.60;1.35;;;55.90;1.00;;;;;;5007814;28;20274;-82
2023/06/04 08:20:29;;;;;;;2.15;1.35;;;55.70;1.00;;;;;;5008381;28;20178;-83
2023/06/04 08:22:55;;;;;;;6.88;1.60;;;55.20;1.00;;;;;;5006908;28;20305;-84
2023/06/04 08:25:20;;;;;;;1.67;1.40;;;55.30;1.00;;;;;;5006063;28;20182;-83
2023/06/04 08:27:46;;;;;;;5.07;1.80;;;55.40;1.00;;;;;;5008308;28;20202;-83
2023/06/04 08:30:12;;;;;;;3.40;1.77;;;55.40;1.00;;;;;;5008471;28;20249;-82
2023/06/04 08:33:11;;;;;;;;;;;;;;;;;;;;;
2023/06/04 08:40:22;;;;;;;;;;;;;;;;;;;;;
2023/06/04 08:43:44;;;;;;;;;;;;;;;;;;;;;
2023/06/04 08:53:24;;;;;;;5.60;1.30;;;54.60;1.00;;;;;;5003855;28;20200;-84
2023/06/04 08:55:55;;;;;;;1.70;1.30;;;53.80;1.00;;;;;;5005079;28;20191;-83
2023/06/04 08:59:01;;;;;;;4.63;1.27;;;53.10;1.00;;;;;;5001390;28;20206;-82
2023/06/04 09:01:42;;;;;;;;;;;;;;;;;;;;;
2023/06/04 09:05:47;;;;;;;2.77;1.60;;;52.60;1.00;;;;;;4984039;28;20287;-80
2023/06/04 09:11:31;;;;;;;2.50;1.57;;;52.10;1.00;;;;;;5016471;28;20440;-80
2023/06/04 09:14:18;;;;;;;;;;;;;;;;;;;;;
2023/06/04 09:20:57;;;;;;;;;;;;;;;;;;;;;
2023/06/04 09:33:25;;;;;;;;;;;;;;;;;;;;;
2023/06/04 09:36:18;;;;;;;;;;;;;;;;;;;;;
2023/06/04 09:39:23;;;;;;;;;;;;;;;;;;;;;
2023/06/04 09:42:03;;;;;;;2.90;2.07;;;50.50;1.00;;;;;;5017320;28;20890;-84
2023/06/04 09:44:52;;;;;;;2.43;1.80;;;49.60;1.00;;;;;;5002408;28;20468;-82
2023/06/04 09:47:22;;;;;;;6.33;1.87;;;48.90;1.00;;;;;;4988330;28;20457;-84
2023/06/04 09:50:46;;;;;;;4.93;1.77;;;48.70;1.00;;;;;;5018861;28;20413;-83
2023/06/04 09:53:22;;;;;;;5.30;1.93;;;48.40;1.00;;;;;;5015627;28;20433;-84
2023/06/04 09:56:26;;;;;;;2.27;1.50;;;47.70;1.00;;;;;;5018008;28;20441;-85
2023/06/04 10:02:11;;;;;;;;;;;;;;;;;;;;;
2023/06/04 10:04:52;;;;;;;;;;;;;;;;;;;;;
2023/06/04 10:07:38;;;;;;;2.90;1.70;;;47.00;1.00;;;;;;5018497;28;20537;-85
2023/06/04 10:11:07;;;;;;;;;;;;;;;;;;;;;
2023/06/04 10:18:22;;;;;;;;;;;;;;;;;;;;;
2023/06/04 10:21:41;;;;;;;;;;;;;;;;;;;;;
2023/06/04 10:25:10;;;;;;;;;;;;;;;;;;;;;
2023/06/04 10:28:05;;;;;;;4.40;2.00;;;44.70;1.00;;;;;;4945114;28;20559;-82
2023/06/04 10:35:03;;;;;;;;;;;;;;;;;;;;;
2023/06/04 10:38:35;;;;;;;;;;;;;;;;;;;;;
2023/06/04 10:41:36;;;;;;;2.47;1.73;;;43.90;1.00;;;;;;4940331;29;20524;-82
2023/06/04 10:47:23;;;;;;;1.53;1.40;;;43.40;1.00;;;;;;4923411;29;20446;-82
2023/06/04 10:49:52;;;;;;;2.60;1.40;;;43.50;1.00;;;;;;4923727;29;20433;-83
2023/06/04 10:52:27;;;;;;;3.67;2.10;;;43.30;1.00;;;;;;4976631;28;20426;-84
2023/06/04 10:55:03;;;;;;;2.73;1.40;;;43.60;1.00;;;;;;5002999;28;20465;-82
2023/06/04 10:57:29;;;;;;;2.63;1.87;;;43.80;1.00;;;;;;5020172;28;20468;-83
2023/06/04 10:59:58;;;;;;;3.60;1.53;;;43.90;1.00;;;;;;5018352;28;20437;-84
2023/06/04 11:02:37;;;;;;;6.23;1.60;;;43.80;1.00;;;;;;5018555;28;20187;-82
2023/06/04 11:05:09;;;;;;;1.90;1.70;;;43.30;1.00;;;;;;5007888;28;20481;-83
2023/06/04 11:07:46;;;;;;;4.33;2.00;;;43.40;1.00;;;;;;4997489;28;20836;-82
2023/06/04 11:10:41;;;;;;;5.37;2.17;;;43.30;1.00;;;;;;5009779;28;20433;-82
2023/06/04 11:13:07;;;;;;;4.03;1.70;;;43.40;1.00;;;;;;5003578;28;21026;-83
2023/06/04 11:15:40;;;;;;;2.40;1.30;;;43.60;1.00;;;;;;5002032;28;20528;-83
2023/06/04 11:34:33;;;;;;;;;;;;;;;;;;;;;
2023/06/04 11:37:40;;;;;;;;;;;;;;;;;;;;;
2023/06/04 11:44:20;;;;;;;3.97;1.80;;;41.50;1.00;;;;;;4997026;28;20478;-85
2023/06/04 11:46:59;;;;;;;6.50;2.00;;;41.00;1.00;;;;;;5040737;28;20460;-85
2023/06/04 11:50:30;;;;;;;;;;;;;;;;;;;;;
2023/06/04 11:53:57;;;;;;;;;;;;;;;;;;;;;
2023/06/04 11:56:51;;;;;;;7.30;2.40;;;40.60;1.00;;;;;;5051918;28;20424;-83
2023/06/04 12:00:08;;;;;;;;;;;;;;;;;;;;;
2023/06/04 12:10:22;;;;;;;4.80;2.00;;;39.60;1.00;;;;;;4999335;28;20935;-83
2023/06/04 12:12:56;;;;;;;1.90;1.40;;;39.40;1.00;;;;;;4998345;28;20515;-81
2023/06/04 12:15:48;;;;;;;2.80;1.77;;;39.30;1.00;;;;;;5014374;28;20467;-80
2023/06/04 12:18:25;;;;;;;4.40;1.47;;;39.30;1.00;;;;;;5031621;28;20962;-82
2023/06/04 12:21:09;;;;;;;;;;;;;;;;;;;;;
2023/06/04 12:23:43;;;;;;;3.17;1.90;;;39.20;1.00;;;;;;5056697;28;20575;-80
2023/06/04 12:26:23;;;;;;;4.47;1.90;;;39.10;1.00;;;;;;5058723;28;21140;-83
2023/06/04 12:29:02;;;;;;;4.77;2.07;;;38.80;1.00;;;;;;5053627;28;20429;-82
2023/06/04 12:31:41;;;;;;;4.60;1.83;;;38.70;1.00;;;;;;5050012;28;20450;-82
2023/06/04 12:34:13;;;;;;;6.40;1.73;;;38.80;1.00;;;;;;5040696;28;20857;-83
2023/06/04 12:36:46;;;;;;;4.53;1.90;;;38.80;1.00;;;;;;5038437;28;20645;-82
2023/06/04 12:39:37;;;;;;;5.20;1.70;;;38.90;1.00;;;;;;5056842;28;20433;-84
2023/06/04 12:42:08;;;;;;;2.67;1.83;;;39.00;1.00;;;;;;5052084;28;20512;-82
2023/06/04 12:44:37;;;;;;;3.23;2.00;;;39.10;1.00;;;;;;5036745;28;20487;-82
2023/06/04 12:47:28;;;;;;;3.60;1.90;;;39.00;1.00;;;;;;5061111;28;20956;-83
2023/06/04 12:50:02;;;;;;;2.03;1.60;;;38.40;1.00;;;;;;5055446;28;20819;-82
2023/06/04 12:52:33;;;;;;;3.57;1.97;;;37.40;1.00;;;;;;5055425;28;20752;-83
2023/06/04 12:55:13;;;;;;;3.67;1.90;;;37.40;1.00;;;;;;5053353;28;20892;-83
2023/06/04 12:57:44;;;;;;;1.83;1.50;;;37.40;1.00;;;;;;5058349;28;20447;-83
2023/06/04 13:00:37;;;;;;;;;;;;;;;;;;;;;
2023/06/04 13:03:08;;;;;;;2.03;1.80;;;37.10;1.00;;;;;;5060329;28;20986;-83
2023/06/04 13:05:39;;;;;;;4.90;1.87;;;37.10;1.00;;;;;;5058049;28;20440;-82
2023/06/04 13:08:04;;;;;;;3.83;1.80;;;36.90;1.00;;;;;;5057945;28;20463;-81
2023/06/04 13:10:32;;;;;;;2.23;1.43;;;36.70;1.00;;;;;;5035505;28;20602;-81
2023/06/04 13:15:44;;;;;;;3.80;2.20;;;36.10;1.00;;;;;;5056733;28;20460;-83
2023/06/04 13:18:13;;;;;;;2.60;1.60;;;36.00;1.00;;;;;;5058990;28;20523;-84
2023/06/04 13:21:10;;;;;;;2.00;1.73;;;35.80;1.00;;;;;;5062889;28;20443;-79
2023/06/04 13:23:36;;;;;;;4.60;1.50;;;35.60;1.00;;;;;;5039939;28;20472;-80
2023/06/04 13:26:04;;;;;;;2.50;1.90;;;35.50;1.00;;;;;;5057770;28;20435;-81
2023/06/04 13:28:30;;;;;;;3.40;1.60;;;35.50;1.00;;;;;;5045223;28;20186;-82
2023/06/04 13:30:55;;;;;;;6.57;2.20;;;35.20;1.00;;;;;;5058608;28;20453;-83
2023/06/04 13:33:30;;;;;;;2.53;1.40;;;35.10;1.00;;;;;;5062817;28;20476;-84
2023/06/04 13:35:56;;;;;;;2.97;1.70;;;35.20;1.00;;;;;;5060616;28;20189;-83
2023/06/04 13:38:24;;;;;;;2.93;1.60;;;35.00;1.00;;;;;;5063659;28;20531;-82
2023/06/04 13:40:52;;;;;;;3.00;1.97;;;34.90;1.00;;;;;;5052487;28;20207;-85
2023/06/04 13:43:21;;;;;;;2.53;1.70;;;34.80;1.00;;;;;;5063086;28;20571;-83
2023/06/04 13:45:52;;;;;;;3.70;2.27;;;34.60;1.00;;;;;;5057374;28;20435;-82
2023/06/04 13:48:18;;;;;;;2.23;1.70;;;34.50;1.00;;;;;;5058426;28;20448;-83
2023/06/04 13:50:44;;;;;;;2.60;1.67;;;34.30;1.00;;;;;;5060705;28;20448;-84
2023/06/04 13:53:10;;;;;;;3.60;1.97;;;33.80;1.00;;;;;;5055536;28;20182;-79
2023/06/04 13:55:36;;;;;;;3.60;2.13;;;33.40;1.00;;;;;;5058944;28;20296;-81
2023/06/04 13:58:16;;;;;;;4.37;2.00;;;33.10;1.00;;;;;;5060820;28;20499;-81
2023/06/04 14:00:42;;;;;;;3.60;1.83;;;32.80;1.00;;;;;;5052293;28;20237;-80
2023/06/04 14:03:08;;;;;;;2.73;2.40;;;32.40;1.00;;;;;;5057747;28;20601;-82
2023/06/04 14:05:33;;;;;;;7.40;2.13;;;32.20;1.00;;;;;;5058762;28;20182;-82
2023/06/04 14:07:59;;;;;;;3.93;1.70;;;32.00;1.00;;;;;;5043304;28;20205;-83
2023/06/04 14:10:24;;;;;;;2.63;2.00;;;31.90;1.00;;;;;;5057997;28;20606;-83
2023/06/04 14:12:56;;;;;;;3.50;1.60;;;31.80;1.00;;;;;;5048099;28;20181;-82
2023/06/04 14:15:22;;;;;;;4.37;2.20;;;31.60;1.00;;;;;;5044379;28;20255;-83
2023/06/04 14:17:48;;;;;;;2.83;1.93;;;31.60;1.00;;;;;;5039652;28;20460;-83
2023/06/04 14:20:13;;;;;;;2.63;1.60;;;31.60;1.00;;;;;;5040194;28;20277;-84
2023/06/04 14:22:39;;;;;;;3.40;1.97;;;31.60;1.00;;;;;;5058492;28;20262;-83
2023/06/04 14:25:19;;;;;;;4.90;2.00;;;31.60;1.00;;;;;;5057452;28;20190;-83
2023/06/04 14:27:46;;;;;;;4.00;1.90;;;31.60;1.00;;;;;;5054545;28;20204;-84
2023/06/04 14:30:15;;;;;;;4.10;2.20;;;31.30;1.00;;;;;;5059626;28;20475;-84
2023/06/04 14:32:40;;;;;;;3.90;2.40;;;31.00;1.00;;;;;;5057829;28;20466;-82
2023/06/04 14:35:06;;;;;;;2.53;2.07;;;30.80;1.00;;;;;;5056726;28;20472;-84
2023/06/04 14:37:50;;;;;;;3.20;1.90;;;30.70;1.00;;;;;;5063977;28;20618;-82
2023/06/04 14:40:16;;;;;;;6.50;2.83;;;30.40;1.00;;;;;;5061580;28;20423;-82
2023/06/04 14:42:42;;;;;;;4.10;2.10;;;30.00;1.00;;;;;;5046034;28;20438;-82
2023/06/04 14:45:10;;;;;;;3.10;2.00;;;29.80;1.00;;;;;;5047501;28;20174;-81
2023/06/04 14:47:54;;;;;;;2.17;1.97;;;29.70;1.00;;;;;;5064093;28;20205;-83
2023/06/04 14:50:20;;;;;;;3.60;1.73;;;29.60;1.00;;;;;;5055220;28;20434;-83
2023/06/04 14:52:46;;;;;;;4.80;2.10;;;29.60;1.00;;;;;;5042515;28;20427;-82
2023/06/04 14:55:11;;;;;;;2.30;2.00;;;29.60;1.00;;;;;;5060862;28;20203;-83
2023/06/04 14:57:37;;;;;;;3.43;2.47;;;29.70;1.00;;;;;;5061542;28;20455;-82
2023/06/04 15:00:17;;;;;;;3.13;2.10;;;29.70;1.00;;;;;;5053671;28;20204;-83